createdAt,value
2019-03-08T00:02:24.710Z,7.62
2019-03-08T00:04:51.231Z,7.00
2019-03-08T00:07:17.680Z,7.22
2019-03-08T00:09:44.130Z,7.58
2019-03-08T00:12:10.975Z,7.17
2019-03-08T00:14:37.417Z,6.78
2019-03-08T00:17:04.254Z,7.45
2019-03-08T00:19:30.701Z,6.78
2019-03-08T00:21:57.175Z,7.33
2019-03-08T00:24:23.622Z,6.67
2019-03-08T00:26:50.078Z,6.83
2019-03-08T00:29:16.802Z,6.80
2019-03-08T00:31:43.349Z,6.87
2019-03-08T00:34:09.812Z,6.25
2019-03-08T00:36:36.268Z,5.90
2019-03-08T00:39:04.735Z,12.30
2019-03-08T00:41:33.100Z,8.58
2019-03-08T00:43:59.519Z,8.50
2019-03-08T00:46:26.167Z,8.78
2019-03-08T00:48:52.606Z,10.98
2019-03-08T00:51:19.033Z,11.20
2019-03-08T00:53:45.549Z,10.63
2019-03-08T00:56:12.089Z,9.65
2019-03-08T00:58:38.625Z,9.18
2019-03-08T01:01:05.656Z,10.13
2019-03-08T01:03:32.412Z,8.73
2019-03-08T01:05:58.836Z,7.90
2019-03-08T01:08:25.280Z,6.33
2019-03-08T01:10:51.934Z,5.87
2019-03-08T01:13:18.374Z,6.12
2019-03-08T01:15:44.806Z,6.85
2019-03-08T01:18:11.385Z,6.28
2019-03-08T01:20:37.830Z,7.03
2019-03-08T01:23:04.273Z,7.37
2019-03-08T01:25:30.887Z,5.50
2019-03-08T01:28:08.571Z,7.42
2019-03-08T01:30:37.006Z,6.72
2019-03-08T01:33:03.635Z,6.97
2019-03-08T01:35:30.312Z,8.03
2019-03-08T01:37:56.848Z,7.85
2019-03-08T01:40:23.627Z,6.80
2019-03-08T01:42:50.184Z,7.65
2019-03-08T01:45:16.851Z,7.03
2019-03-08T01:47:43.280Z,7.72
2019-03-08T01:50:10.220Z,7.30
2019-03-08T01:52:36.773Z,7.58
2019-03-08T01:55:05.233Z,5.95
2019-03-08T01:57:31.682Z,7.60
2019-03-08T01:59:58.140Z,8.98
2019-03-08T02:02:24.579Z,6.60
2019-03-08T02:04:51.091Z,9.28
2019-03-08T02:07:17.655Z,7.50
2019-03-08T02:09:44.177Z,9.00
2019-03-08T02:12:10.619Z,8.05
2019-03-08T02:14:37.051Z,8.18
2019-03-08T02:17:03.596Z,8.15
2019-03-08T02:19:30.030Z,7.10
2019-03-08T02:21:56.495Z,7.42
2019-03-08T02:24:22.921Z,6.90
2019-03-08T02:26:49.471Z,7.25
2019-03-08T02:29:16.341Z,8.00
2019-03-08T02:31:42.879Z,6.78
2019-03-08T02:34:09.305Z,6.40
2019-03-08T02:36:35.778Z,6.92
2019-03-08T02:39:04.601Z,5.20
2019-03-08T02:41:32.751Z,5.70
2019-03-08T02:43:59.189Z,5.08
2019-03-08T02:46:25.652Z,6.05
2019-03-08T02:48:52.134Z,6.28
2019-03-08T02:51:18.608Z,6.12
2019-03-08T02:53:45.033Z,5.10
2019-03-08T02:56:11.476Z,17.20
2019-03-08T02:58:37.920Z,6.53
2019-03-08T03:01:04.409Z,6.67
2019-03-08T03:03:31.163Z,5.85
2019-03-08T03:05:58.831Z,6.17
2019-03-08T03:08:25.246Z,5.80
2019-03-08T03:10:51.693Z,6.60
2019-03-08T03:13:18.333Z,7.28
2019-03-08T03:15:44.891Z,6.22
2019-03-08T03:18:12.603Z,7.67
2019-03-08T03:20:39.496Z,9.43
2019-03-08T03:23:05.903Z,8.90
2019-03-08T03:25:32.355Z,7.05
2019-03-08T03:27:58.799Z,7.85
2019-03-08T03:30:25.344Z,9.50
2019-03-08T03:32:51.905Z,7.85
2019-03-08T03:35:18.342Z,7.25
2019-03-08T03:37:45.111Z,7.33
2019-03-08T03:40:18.238Z,7.25
2019-03-08T03:45:15.289Z,7.20
2019-03-08T03:47:41.708Z,5.62
2019-03-08T03:50:10.267Z,6.17
2019-03-08T03:52:36.886Z,9.23
2019-03-08T03:55:05.942Z,9.95
2019-03-08T03:57:32.389Z,8.10
2019-03-08T03:59:58.962Z,9.10
2019-03-08T04:02:25.403Z,9.38
2019-03-08T04:04:51.889Z,7.20
2019-03-08T04:07:18.338Z,7.15
2019-03-08T04:09:45.069Z,6.58
2019-03-08T04:12:11.522Z,6.67
2019-03-08T04:14:37.980Z,7.85
2019-03-08T04:17:04.411Z,7.03
2019-03-08T04:19:30.867Z,6.92
2019-03-08T04:21:57.277Z,6.97
2019-03-08T04:24:23.730Z,6.92
2019-03-08T04:26:50.562Z,6.37
2019-03-08T04:29:16.994Z,6.90
2019-03-08T04:31:43.424Z,9.53
2019-03-08T04:34:09.889Z,9.00
2019-03-08T04:36:36.377Z,8.08
2019-03-08T04:39:06.461Z,7.87
2019-03-08T04:41:33.333Z,7.15
2019-03-08T04:44:00.063Z,7.03
2019-03-08T04:46:26.519Z,7.50
2019-03-08T04:48:52.961Z,7.12
2019-03-08T04:51:19.570Z,7.47
2019-03-08T04:53:45.995Z,7.97
2019-03-08T04:56:12.438Z,8.10
2019-03-08T04:58:38.852Z,6.45
2019-03-08T05:01:05.306Z,7.03
2019-03-08T05:03:31.738Z,7.00
2019-03-08T05:05:58.174Z,5.85
2019-03-08T05:08:24.640Z,6.50
2019-03-08T05:10:51.078Z,6.75
2019-03-08T05:13:17.517Z,6.97
2019-03-08T05:15:43.966Z,6.12
2019-03-08T05:18:10.417Z,7.75
2019-03-08T05:20:37.252Z,6.33
2019-03-08T05:23:03.708Z,6.87
2019-03-08T05:25:30.142Z,6.70
2019-03-08T05:27:56.583Z,6.33
2019-03-08T05:30:23.119Z,7.12
2019-03-08T05:32:49.600Z,6.65
2019-03-08T05:35:16.025Z,7.30
2019-03-08T05:37:42.681Z,7.53
2019-03-08T05:40:10.789Z,10.68
2019-03-08T05:42:37.212Z,10.38
2019-03-08T05:45:07.475Z,26.35
2019-03-08T05:47:33.911Z,17.82
2019-03-08T05:50:00.370Z,11.22
2019-03-08T05:52:26.815Z,8.75
2019-03-08T05:54:53.279Z,8.48
2019-03-08T05:57:19.795Z,10.85
2019-03-08T05:59:46.236Z,10.85
2019-03-08T06:02:12.685Z,7.45
2019-03-08T06:04:39.137Z,7.55
2019-03-08T06:07:05.615Z,8.05
2019-03-08T06:09:32.066Z,7.28
2019-03-08T06:11:58.524Z,9.28
2019-03-08T06:14:26.062Z,6.00
2019-03-08T06:16:52.530Z,6.12
2019-03-08T06:19:19.058Z,8.10
2019-03-08T06:21:45.501Z,9.33
2019-03-08T06:24:12.262Z,9.53
2019-03-08T06:26:39.504Z,8.63
2019-03-08T06:29:07.033Z,10.23
2019-03-08T06:31:33.506Z,12.47
2019-03-08T06:34:00.304Z,6.22
2019-03-08T06:36:26.757Z,4.72
2019-03-08T06:38:53.193Z,4.50
2019-03-08T06:41:19.943Z,5.55
2019-03-08T06:43:46.440Z,4.47
2019-03-08T06:46:12.880Z,6.45
2019-03-08T06:48:40.411Z,23.65
2019-03-08T06:51:06.944Z,6.25
2019-03-08T06:53:33.410Z,5.30
2019-03-08T06:55:59.878Z,7.15
2019-03-08T06:58:31.214Z,6.70
2019-03-08T07:00:59.590Z,8.23
2019-03-08T07:03:26.009Z,5.62
2019-03-08T07:05:52.472Z,25.52
2019-03-08T07:08:19.220Z,9.40
2019-03-08T07:10:45.774Z,21.62
2019-03-08T07:13:12.197Z,9.75
2019-03-08T07:15:38.671Z,7.08
2019-03-08T07:18:12.113Z,27.07
2019-03-08T07:20:41.096Z,11.97
2019-03-08T07:23:28.019Z,28.38
2019-03-08T07:25:54.419Z,6.78
2019-03-08T07:28:21.890Z,6.12
2019-03-08T07:30:57.737Z,4.58
2019-03-08T07:33:20.483Z,3.95
2019-03-08T07:35:51.691Z,4.90
2019-03-08T07:38:23.060Z,7.22
2019-03-08T07:41:00.448Z,4.58
2019-03-08T07:43:28.817Z,4.65
2019-03-08T07:45:57.198Z,3.90
2019-03-08T07:48:28.841Z,4.65
2019-03-08T07:50:57.166Z,5.22
2019-03-08T07:53:31.316Z,4.10
2019-03-08T07:58:34.150Z,3.25
2019-03-08T08:01:02.530Z,3.40
2019-03-08T08:03:47.475Z,2.83
2019-03-08T08:06:15.831Z,3.00
2019-03-08T08:08:59.187Z,2.33
2019-03-08T08:11:30.513Z,2.10
2019-03-08T08:14:17.201Z,2.80
2019-03-08T08:16:57.698Z,2.35
2019-03-08T08:19:42.781Z,2.30
2019-03-08T08:22:17.407Z,2.70
2019-03-08T08:24:58.023Z,2.30
2019-03-08T08:27:38.487Z,2.47
2019-03-08T08:30:15.948Z,2.95
2019-03-08T08:32:45.401Z,3.45
2019-03-08T08:35:22.940Z,2.65
2019-03-08T08:37:51.506Z,2.75
2019-03-08T08:40:22.797Z,3.20
2019-03-08T08:42:54.187Z,2.72
2019-03-08T08:45:22.515Z,2.42
2019-03-08T08:48:07.805Z,1.70
2019-03-08T08:50:52.924Z,2.52
2019-03-08T08:53:21.276Z,2.75
2019-03-08T08:55:59.044Z,5.08
2019-03-08T08:58:42.678Z,2.40
2019-03-08T09:01:14.159Z,2.07
2019-03-08T09:03:57.877Z,2.05
2019-03-08T09:06:43.155Z,1.90
2019-03-08T09:09:11.720Z,2.02
2019-03-08T09:11:44.562Z,2.55
2019-03-08T09:14:10.312Z,2.22
2019-03-08T09:16:57.644Z,2.05
2019-03-08T09:19:26.039Z,2.55
2019-03-08T09:21:57.406Z,2.67
2019-03-08T09:24:25.853Z,2.17
2019-03-08T09:26:57.318Z,2.62
2019-03-08T09:29:43.934Z,2.85
2019-03-08T09:32:15.485Z,3.45
2019-03-08T09:34:46.938Z,2.40
2019-03-08T09:37:32.029Z,2.92
2019-03-08T09:40:06.586Z,3.37
2019-03-08T09:42:35.028Z,2.25
2019-03-08T09:45:03.611Z,2.30
2019-03-08T09:47:43.937Z,2.40
2019-03-08T09:50:29.141Z,2.27
2019-03-08T09:53:14.370Z,2.00
2019-03-08T09:55:59.575Z,2.42
2019-03-08T09:58:43.206Z,2.27
2019-03-08T10:01:28.336Z,2.67
2019-03-08T10:03:56.703Z,3.67
2019-03-08T10:06:43.620Z,2.15
2019-03-08T10:09:15.004Z,2.60
2019-03-08T10:11:43.336Z,2.80
2019-03-08T10:14:26.953Z,2.45
2019-03-08T10:16:55.489Z,4.50
2019-03-08T10:19:23.823Z,2.12
2019-03-08T10:22:08.779Z,3.02
2019-03-08T10:24:52.469Z,3.15
2019-03-08T10:27:20.827Z,2.33
2019-03-08T10:29:51.928Z,3.52
2019-03-08T10:32:20.279Z,2.12
2019-03-08T10:34:48.624Z,6.65
2019-03-08T10:37:26.001Z,4.12
2019-03-08T10:40:12.100Z,2.55
2019-03-08T10:42:40.546Z,2.95
2019-03-08T10:45:16.659Z,2.80
2019-03-08T10:47:56.232Z,2.10
2019-03-08T10:50:36.121Z,2.90
2019-03-08T10:53:07.504Z,8.15
2019-03-08T10:55:53.982Z,5.15
2019-03-08T10:58:39.092Z,55.43
2019-03-08T11:01:16.485Z,2.90
2019-03-08T11:03:47.952Z,2.55
2019-03-08T11:06:25.400Z,2.10
2019-03-08T11:09:02.770Z,1.87
2019-03-08T11:11:35.997Z,1.80
2019-03-08T11:14:04.848Z,2.40
2019-03-08T11:16:36.186Z,2.20
2019-03-08T11:19:19.736Z,1.70
2019-03-08T11:22:00.018Z,1.87
2019-03-08T11:24:31.503Z,1.72
2019-03-08T11:27:05.945Z,1.70
2019-03-08T11:29:51.067Z,1.87
2019-03-08T11:32:31.319Z,2.00
2019-03-08T11:35:05.455Z,1.98
2019-03-08T11:40:30.015Z,1.72
2019-03-08T11:43:01.434Z,1.80
2019-03-08T11:45:38.990Z,1.85
2019-03-08T11:48:10.331Z,1.82
2019-03-08T11:50:55.587Z,2.10
2019-03-08T11:53:26.987Z,2.10
2019-03-08T11:56:12.190Z,1.70
2019-03-08T11:58:43.559Z,2.02
2019-03-08T12:01:11.939Z,1.55
2019-03-08T12:03:52.527Z,1.98
2019-03-08T12:06:27.096Z,1.82
2019-03-08T12:08:55.845Z,1.60
2019-03-08T12:11:32.999Z,1.22
2019-03-08T12:14:10.456Z,1.35
2019-03-08T12:16:51.061Z,1.60
2019-03-08T12:19:29.623Z,1.60
2019-03-08T12:22:15.732Z,1.70
2019-03-08T12:24:44.086Z,1.75
2019-03-08T12:27:12.471Z,1.60
2019-03-08T12:29:57.342Z,2.08
2019-03-08T12:32:28.947Z,1.70
2019-03-08T12:35:00.343Z,1.70
2019-03-08T12:37:31.507Z,3.83
2019-03-08T12:39:59.874Z,4.53
2019-03-08T12:42:46.303Z,1.62
2019-03-08T12:45:14.866Z,2.12
2019-03-08T12:47:46.791Z,1.47
2019-03-08T12:50:21.103Z,1.52
2019-03-08T12:53:07.771Z,1.50
2019-03-08T12:55:39.557Z,1.30
2019-03-08T12:58:14.055Z,2.00
2019-03-08T13:00:42.394Z,1.62
2019-03-08T13:03:10.852Z,1.62
2019-03-08T13:05:39.211Z,1.45
2019-03-08T13:08:18.424Z,1.80
2019-03-08T13:10:45.000Z,2.00
2019-03-08T13:13:13.055Z,1.40
2019-03-08T13:15:39.603Z,1.40
2019-03-08T13:18:06.057Z,1.62
2019-03-08T13:20:32.513Z,1.47
2019-03-08T13:22:59.278Z,2.10
2019-03-08T13:25:25.735Z,1.50
2019-03-08T13:27:52.172Z,1.25
2019-03-08T13:30:21.699Z,1.10
2019-03-08T13:32:48.245Z,1.60
2019-03-08T13:35:15.874Z,1.30
2019-03-08T13:37:42.420Z,1.25
2019-03-08T13:40:11.769Z,1.15
2019-03-08T13:42:38.243Z,1.30
2019-03-08T13:45:08.113Z,1.30
2019-03-08T13:47:34.719Z,1.95
2019-03-08T13:50:01.150Z,0.90
2019-03-08T13:52:27.617Z,2.35
2019-03-08T13:54:54.069Z,1.15
2019-03-08T13:57:20.835Z,1.47
2019-03-08T13:59:47.564Z,1.57
2019-03-08T14:02:14.049Z,1.55
2019-03-08T14:04:40.488Z,1.40
2019-03-08T14:07:08.130Z,1.22
2019-03-08T14:09:34.568Z,1.72
2019-03-08T14:12:01.001Z,3.37
2019-03-08T14:14:27.642Z,2.20
2019-03-08T14:16:54.102Z,1.80
2019-03-08T14:19:20.547Z,1.20
2019-03-08T14:21:46.990Z,1.75
2019-03-08T14:24:13.438Z,1.98
2019-03-08T14:26:39.890Z,1.22
2019-03-08T14:29:06.325Z,1.47
2019-03-08T14:31:35.093Z,1.20
2019-03-08T14:34:01.691Z,1.62
2019-03-08T14:36:28.153Z,1.60
2019-03-08T14:38:54.591Z,1.50
2019-03-08T14:41:31.928Z,1.72
2019-03-08T14:44:06.029Z,1.50
2019-03-08T14:46:53.072Z,1.42
2019-03-08T14:49:22.899Z,1.30
2019-03-08T14:51:49.638Z,1.37
2019-03-08T14:54:16.256Z,1.60
2019-03-08T14:56:42.717Z,3.95
2019-03-08T14:59:11.213Z,1.52
2019-03-08T15:01:39.973Z,3.92
2019-03-08T15:04:05.696Z,10.98
2019-03-08T15:06:32.131Z,9.00
2019-03-08T15:08:58.568Z,5.60
2019-03-08T15:11:25.231Z,1.77
2019-03-08T15:13:51.665Z,1.70
2019-03-08T15:16:18.112Z,1.55
2019-03-08T15:18:44.672Z,1.90
2019-03-08T15:21:11.126Z,2.77
2019-03-08T15:23:37.594Z,3.45
2019-03-08T15:26:05.190Z,2.10
2019-03-08T15:28:31.627Z,2.80
2019-03-08T15:30:58.088Z,2.37
2019-03-08T15:33:24.547Z,1.77
2019-03-08T15:35:51.050Z,1.57
2019-03-08T15:38:17.536Z,1.20
2019-03-08T15:40:44.090Z,1.42
2019-03-08T15:43:13.634Z,1.40
2019-03-08T15:45:40.097Z,2.52
2019-03-08T15:48:11.018Z,1.45
2019-03-08T15:50:35.681Z,1.22
2019-03-08T15:53:02.364Z,1.17
2019-03-08T15:55:29.026Z,1.70
2019-03-08T15:57:55.776Z,1.20
2019-03-08T16:00:22.937Z,1.42
2019-03-08T16:02:49.816Z,1.50
2019-03-08T16:05:17.444Z,2.50
2019-03-08T16:07:44.153Z,1.30
2019-03-08T16:10:14.004Z,1.45
2019-03-08T16:12:41.102Z,1.47
2019-03-08T16:15:09.571Z,1.90
2019-03-08T16:17:36.778Z,1.32
2019-03-08T16:20:06.484Z,2.20
2019-03-08T16:22:32.930Z,1.50
2019-03-08T16:24:59.400Z,1.82
2019-03-08T16:27:26.390Z,2.10
2019-03-08T16:29:52.868Z,2.15
2019-03-08T16:32:30.260Z,1.77
2019-03-08T16:34:56.718Z,1.67
2019-03-08T16:37:27.805Z,1.67
2019-03-08T16:40:12.930Z,1.52
2019-03-08T16:42:53.330Z,1.82
2019-03-08T16:45:33.961Z,2.20
2019-03-08T16:48:08.048Z,1.45
2019-03-08T16:53:17.504Z,1.52
2019-03-08T16:55:54.599Z,1.50
2019-03-08T16:58:26.173Z,1.82
2019-03-08T17:01:01.236Z,2.95
2019-03-08T17:03:30.077Z,3.58
2019-03-08T17:06:15.496Z,4.00
2019-03-08T17:08:49.989Z,2.80
2019-03-08T17:11:18.505Z,4.70
2019-03-08T17:13:49.813Z,2.90
2019-03-08T17:16:24.186Z,3.20
2019-03-08T17:21:20.701Z,2.80
2019-03-08T17:23:52.276Z,3.77
2019-03-08T17:26:37.274Z,1.67
2019-03-08T17:29:05.643Z,1.90
2019-03-08T17:31:34.102Z,1.60
2019-03-08T17:34:05.465Z,2.15
2019-03-08T17:36:33.801Z,2.20
2019-03-08T17:39:02.142Z,2.30
2019-03-08T17:41:32.435Z,3.35
2019-03-08T17:44:17.411Z,2.87
2019-03-08T17:46:45.754Z,1.90
2019-03-08T17:49:26.302Z,2.20
2019-03-08T17:51:57.833Z,2.12
2019-03-08T17:54:32.057Z,2.75
2019-03-08T17:57:00.527Z,2.25
2019-03-08T17:59:32.072Z,2.60
2019-03-08T18:02:03.447Z,2.77
2019-03-08T18:04:37.534Z,2.33
2019-03-08T18:07:16.494Z,2.30
2019-03-08T18:09:51.086Z,1.95
2019-03-08T18:12:25.487Z,2.70
2019-03-08T18:14:59.894Z,3.02
2019-03-08T18:17:37.415Z,3.20
2019-03-08T18:20:25.127Z,3.35
2019-03-08T18:23:02.800Z,5.00
2019-03-08T18:25:48.042Z,5.37
2019-03-08T18:28:16.513Z,4.92
2019-03-08T18:31:01.646Z,4.40
2019-03-08T18:33:33.088Z,3.40
2019-03-08T18:36:19.913Z,2.80
2019-03-08T18:38:57.908Z,4.47
2019-03-08T18:41:43.181Z,4.20
2019-03-08T18:44:23.848Z,6.12
2019-03-08T18:47:04.461Z,5.37
2019-03-08T18:49:32.965Z,4.65
2019-03-08T18:52:01.447Z,5.65
2019-03-08T18:54:29.940Z,4.35
2019-03-08T18:57:07.361Z,4.87
2019-03-08T18:59:38.792Z,11.78
2019-03-08T19:02:07.565Z,10.13
2019-03-08T19:04:42.277Z,18.75
2019-03-08T19:07:13.505Z,24.45
2019-03-08T19:09:53.846Z,22.75
2019-03-08T19:12:34.711Z,22.80
2019-03-08T19:15:19.965Z,24.77
2019-03-08T19:18:00.736Z,19.20
2019-03-08T19:20:47.418Z,7.90
2019-03-08T19:23:18.800Z,14.83
2019-03-08T19:25:56.160Z,9.03
2019-03-08T19:28:25.630Z,5.20
2019-03-08T19:31:10.800Z,4.62
2019-03-08T19:33:54.425Z,16.00
2019-03-08T19:36:39.636Z,26.97
2019-03-08T19:39:25.217Z,26.05
2019-03-08T19:42:08.949Z,25.70
2019-03-08T19:44:53.819Z,20.00
2019-03-08T19:47:34.319Z,20.20
2019-03-08T19:50:05.781Z,19.80
2019-03-08T19:52:37.056Z,38.00
2019-03-08T19:55:07.089Z,23.60
2019-03-08T19:57:35.561Z,19.92
2019-03-08T20:00:05.921Z,20.92
2019-03-08T20:02:41.824Z,19.98
2019-03-08T20:05:12.559Z,24.80
2019-03-08T20:07:55.988Z,17.00
2019-03-08T20:10:24.857Z,19.05
2019-03-08T20:12:55.991Z,43.50
2019-03-08T20:15:30.668Z,22.82
2019-03-08T20:18:15.964Z,49.58
2019-03-08T20:20:44.514Z,25.20
2019-03-08T20:23:14.088Z,26.87
2019-03-08T20:25:57.611Z,44.00
2019-03-08T20:28:42.961Z,40.48
2019-03-08T20:31:11.422Z,34.50
2019-03-08T20:33:58.166Z,27.58
2019-03-08T20:36:30.011Z,23.57
2019-03-08T20:39:10.591Z,21.33
2019-03-08T20:41:44.903Z,21.52
2019-03-08T20:44:13.353Z,19.85
2019-03-08T20:46:43.104Z,10.00
2019-03-08T20:49:09.596Z,15.75
2019-03-08T20:51:36.246Z,19.40
2019-03-08T20:54:02.875Z,26.02
2019-03-08T20:56:30.580Z,21.40
2019-03-08T20:58:57.027Z,18.75
2019-03-08T21:01:23.682Z,18.87
2019-03-08T21:03:50.358Z,18.90
2019-03-08T21:06:17.730Z,20.90
2019-03-08T21:08:44.184Z,17.90
2019-03-08T21:11:11.058Z,18.52
2019-03-08T21:13:37.545Z,17.20
2019-03-08T21:16:04.197Z,15.50
2019-03-08T21:18:30.765Z,15.32
2019-03-08T21:20:57.238Z,15.48
2019-03-08T21:23:23.676Z,15.58
2019-03-08T21:25:50.235Z,14.70
2019-03-08T21:28:16.677Z,14.05
2019-03-08T21:30:43.132Z,15.90
2019-03-08T21:33:10.019Z,17.87
2019-03-08T21:35:36.462Z,17.15
2019-03-08T21:38:03.021Z,13.60
2019-03-08T21:40:29.487Z,14.25
2019-03-08T21:42:56.061Z,12.35
2019-03-08T21:45:22.503Z,14.58
2019-03-08T21:47:48.954Z,7.75
2019-03-08T21:50:16.579Z,6.47
2019-03-08T21:52:43.257Z,7.70
2019-03-08T21:55:10.152Z,12.45
2019-03-08T21:57:36.826Z,13.80
2019-03-08T22:00:25.542Z,14.73
2019-03-08T22:02:52.121Z,11.12
2019-03-08T22:05:29.413Z,13.18
2019-03-08T22:07:55.865Z,12.23
2019-03-08T22:10:27.239Z,11.55
2019-03-08T22:12:54.010Z,12.40
2019-03-08T22:15:20.443Z,11.95
2019-03-08T22:17:46.909Z,11.12
2019-03-08T22:20:13.337Z,11.00
2019-03-08T22:22:39.766Z,9.88
2019-03-08T22:25:07.246Z,9.98
2019-03-08T22:27:33.707Z,10.08
2019-03-08T22:30:00.172Z,9.58
2019-03-08T22:32:26.897Z,9.00
2019-03-08T22:34:53.379Z,9.65
2019-03-08T22:37:19.800Z,10.00
2019-03-08T22:39:46.264Z,9.50
2019-03-08T22:42:12.703Z,9.60
2019-03-08T22:44:39.341Z,11.63
2019-03-08T22:47:05.787Z,9.33
2019-03-08T22:49:32.275Z,9.10
2019-03-08T22:51:58.704Z,6.20
2019-03-08T22:54:25.134Z,8.33
2019-03-08T22:56:51.633Z,5.40
2019-03-08T22:59:19.052Z,5.97
2019-03-08T23:01:51.993Z,7.75
2019-03-08T23:04:18.653Z,6.30
2019-03-08T23:06:46.229Z,5.50
2019-03-08T23:09:13.384Z,6.33
2019-03-08T23:11:41.330Z,6.30
2019-03-08T23:14:08.052Z,6.53
2019-03-08T23:16:34.611Z,6.72
2019-03-08T23:19:01.051Z,9.93
2019-03-08T23:21:27.517Z,7.37
2019-03-08T23:23:53.980Z,7.90
2019-03-08T23:26:20.438Z,10.85
2019-03-08T23:29:00.987Z,15.15
2019-03-08T23:31:29.537Z,14.70
2019-03-08T23:33:56.075Z,14.40
2019-03-08T23:36:23.619Z,12.00
2019-03-08T23:38:50.193Z,14.83
2019-03-08T23:41:17.020Z,13.45
2019-03-08T23:43:43.474Z,14.13
2019-03-08T23:46:10.022Z,11.70
2019-03-08T23:48:36.564Z,14.75
2019-03-08T23:51:03.026Z,14.15
2019-03-08T23:53:29.485Z,15.70
2019-03-08T23:55:55.921Z,15.15
2019-03-08T23:58:22.382Z,17.17
